Time;durP1;ratioP1;P1;durP2;ratioP2;P2;SDS_P1;SDS_P2;PMS_P1;PMS_P2;Temp;Humidity;BMP_temperature;BMP_pressure;BME280_temperature;BME280_humidity;BME280_pressure;Samples;Min_cycle;Max_cycle;Signal;HPM_P1;HPM_P2
2021/01/15 00:01:45;;;;;;;2.70;2.45;;;;;;;-1.05;76.66;97172.87;1744594;81;21591;-67
2021/01/15 00:04:13;;;;;;;2.95;2.22;;;;;;;-1.05;76.66;97172.87;1744718;81;21676;-67
2021/01/15 00:06:42;;;;;;;4.17;2.42;;;;;;;-1.06;77.11;97187.00;1749307;81;21191;-66
2021/01/15 00:09:10;;;;;;;2.17;1.20;;;;;;;-1.06;77.11;97187.00;1752824;80;21143;-65
2021/01/15 00:11:40;;;;;;;4.95;2.98;;;;;;;-1.06;77.20;97188.27;1752845;80;21193;-66
2021/01/15 00:14:08;;;;;;;2.75;2.55;;;;;;;-1.09;77.37;97194.34;1752729;81;21556;-66
2021/01/15 00:16:36;;;;;;;3.02;2.10;;;;;;;-1.15;77.60;97190.07;1752652;81;21151;-65
2021/01/15 00:19:04;;;;;;;4.53;2.67;;;;;;;-1.20;77.72;97192.88;1752887;81;21155;-64
2021/01/15 00:21:55;;;;;;;2.65;1.30;;;;;;;-1.19;77.58;97202.63;1752952;81;21175;-64
2021/01/15 00:24:23;;;;;;;4.30;2.55;;;;;;;-1.25;77.75;97197.90;1637271;86;21179;-65
2021/01/15 00:26:51;;;;;;;2.20;1.87;;;;;;;-1.23;77.50;97204.53;1637237;87;21212;-63
2021/01/15 00:29:19;;;;;;;1.75;0.53;;;;;;;-1.21;77.69;97212.09;1636959;85;21191;-64
2021/01/15 00:31:49;;;;;;;3.72;2.60;;;;;;;-1.20;77.28;97214.53;1637054;86;21573;-63
2021/01/15 00:34:20;;;;;;;1.95;1.47;;;;;;;-1.30;78.47;97211.34;1637261;87;21201;-65
2021/01/15 00:36:50;;;;;;;3.02;2.65;;;;;;;-1.30;78.47;97211.34;1637045;88;21207;-65
2021/01/15 00:39:18;;;;;;;1.42;1.20;;;;;;;-1.30;78.21;97222.80;1636954;86;21214;-67
2021/01/15 00:41:46;;;;;;;4.42;2.37;;;;;;;-1.31;78.26;97223.25;1637222;87;21218;-68
2021/01/15 00:44:16;;;;;;;2.27;2.05;;;;;;;-1.38;78.31;97221.97;1637016;86;21187;-67
2021/01/15 00:46:45;;;;;;;4.12;2.02;;;;;;;-1.38;78.31;97221.97;1637113;87;21164;-67
2021/01/15 00:49:16;;;;;;;2.37;2.02;;;;;;;-1.37;78.76;97224.89;1637084;86;21187;-67
2021/01/15 00:51:51;;;;;;;3.02;1.82;;;;;;;-1.34;78.43;97225.16;1637089;85;21226;-67
2021/01/15 00:54:40;;;;;;;3.98;2.77;;;;;;;-1.32;78.83;97222.88;1637217;86;21187;-68
2021/01/15 00:57:09;;;;;;;4.25;2.40;;;;;;;-1.28;78.01;97228.61;1647292;85;21195;-67
2021/01/15 00:59:37;;;;;;;4.10;2.20;;;;;;;-1.28;78.01;97228.61;1647421;86;21148;-69
2021/01/15 01:02:16;;;;;;;6.37;2.65;;;;;;;-1.32;77.94;97218.27;1647692;85;21175;-67
2021/01/15 01:04:45;;;;;;;3.98;2.17;;;;;;;-1.20;77.90;97240.46;1647144;86;21186;-67
2021/01/15 01:07:13;;;;;;;2.05;1.60;;;;;;;-1.20;77.90;97240.46;1647176;85;21175;-68
2021/01/15 01:09:42;;;;;;;2.87;2.58;;;;;;;-1.19;77.51;97233.19;1647149;85;21178;-67
2021/01/15 01:12:10;;;;;;;6.62;2.95;;;;;;;-1.16;77.59;97249.56;1647326;85;21203;-67
2021/01/15 01:14:39;;;;;;;4.65;3.17;;;;;;;-1.20;77.82;97246.38;1647068;85;21179;-65
2021/01/15 01:17:07;;;;;;;1.70;1.57;;;;;;;-1.21;78.11;97249.03;1647259;86;21596;-65
2021/01/15 01:19:35;;;;;;;2.02;1.87;;;;;;;-1.26;78.46;97247.19;1647155;85;21179;-65
2021/01/15 01:22:03;;;;;;;2.17;1.98;;;;;;;-1.26;78.46;97247.19;1647410;86;21171;-65
2021/01/15 01:24:31;;;;;;;2.85;2.25;;;;;;;-1.32;78.59;97243.25;1647174;87;21179;-65
2021/01/15 01:26:59;;;;;;;1.95;1.52;;;;;;;-1.32;78.59;97243.25;1647233;85;21176;-65
2021/01/15 01:29:29;;;;;;;2.55;2.12;;;;;;;-1.30;78.39;97250.82;1647293;86;21271;-66
2021/01/15 01:31:58;;;;;;;3.25;2.55;;;;;;;-1.39;78.67;97247.06;1647074;87;21541;-65
2021/01/15 01:34:27;;;;;;;4.50;2.17;;;;;;;-1.39;78.67;97247.06;1647327;85;21227;-66
2021/01/15 01:36:56;;;;;;;4.00;2.85;;;;;;;-1.38;78.14;97243.62;1647266;85;21189;-66
2021/01/15 01:39:24;;;;;;;5.97;2.90;;;;;;;-1.41;77.97;97246.34;1647220;87;21164;-65
2021/01/15 01:41:53;;;;;;;4.78;1.75;;;;;;;-1.44;77.91;97244.77;1647077;86;21152;-65
2021/01/15 01:44:21;;;;;;;2.67;1.25;;;;;;;-1.49;77.92;97241.69;1647278;85;21593;-67
2021/01/15 01:46:49;;;;;;;2.25;1.75;;;;;;;-1.49;77.92;97241.69;1646978;85;21208;-67
2021/01/15 01:49:18;;;;;;;3.77;2.77;;;;;;;-1.42;78.04;97248.52;1647084;86;21203;-65
2021/01/15 01:51:51;;;;;;;4.35;2.35;;;;;;;-1.45;77.83;97239.78;1647142;87;21196;-65
2021/01/15 01:54:19;;;;;;;2.45;1.70;;;;;;;-1.44;77.84;97254.16;1647070;86;21226;-67
2021/01/15 01:56:48;;;;;;;2.27;1.57;;;;;;;-1.41;77.59;97256.98;1691321;82;21242;-65
2021/01/15 01:59:17;;;;;;;3.30;2.45;;;;;;;-1.44;77.80;97257.50;1702914;83;21329;-66
2021/01/15 02:01:45;;;;;;;4.58;2.30;;;;;;;-1.42;77.90;97258.70;1703210;84;21258;-66
2021/01/15 02:04:13;;;;;;;7.28;3.00;;;;;;;-1.40;77.66;97259.91;1703021;82;21167;-65
2021/01/15 02:06:41;;;;;;;6.17;3.12;;;;;;;-1.37;77.04;97263.09;1703127;82;21202;-65
2021/01/15 02:09:10;;;;;;;4.17;1.85;;;;;;;-1.32;77.19;97261.56;1703581;82;21582;-65
2021/01/15 02:12:10;;;;;;;3.33;2.25;;;;;;;-1.32;77.19;97261.56;1703328;84;21187;-65
2021/01/15 02:14:53;;;;;;;3.12;2.83;;;;;;;-1.33;77.13;97259.92;1669283;85;21171;-67
2021/01/15 02:17:26;;;;;;;3.85;2.55;;;;;;;-1.30;76.73;97263.56;1668631;86;21163;-67
2021/01/15 02:20:45;;;;;;;2.92;1.92;;;;;;;-1.36;76.16;97270.28;1668824;86;21176;-67
2021/01/15 02:23:33;;;;;;;2.92;1.92;;;;;;;-1.36;76.16;97270.28;1700503;84;21647;-67
2021/01/15 02:26:10;;;;;;;1.62;1.37;;;;;;;-1.35;76.36;97285.91;1700813;84;21212;-67
2021/01/15 02:32:19;;;;;;;1.60;1.15;;;;;;;-1.37;76.39;97290.28;1696803;84;21140;-66
2021/01/15 02:35:14;;;;;;;1.70;1.13;;;;;;;-1.42;75.98;97290.53;1613866;88;21200;-65
2021/01/15 02:38:28;;;;;;;1.10;1.02;;;;;;;-1.48;75.97;97308.72;1613780;89;21251;-66
2021/01/15 02:41:04;;;;;;;0.40;0.40;;;;;;;-1.51;76.47;97296.95;1593156;89;21203;-66
2021/01/15 02:43:55;;;;;;;1.00;0.98;;;;;;;-1.42;76.57;97306.27;1823590;77;22913;-69
2021/01/15 02:46:57;;;;;;;1.10;0.98;;;;;;;-1.48;76.26;97301.88;1826612;78;21281;-67
2021/01/15 02:49:27;;;;;;;1.32;1.22;;;;;;;-1.51;76.21;97294.41;1827145;78;21147;-67
2021/01/15 02:51:57;;;;;;;0.70;0.70;;;;;;;-1.46;76.49;97303.07;1827366;78;21304;-67
2021/01/15 02:54:27;;;;;;;1.30;1.20;;;;;;;-1.49;76.35;97296.88;1828110;78;21318;-70
2021/01/15 02:56:55;;;;;;;1.35;1.25;;;;;;;-1.50;76.30;97294.78;1827942;78;21679;-67
2021/01/15 02:59:23;;;;;;;3.22;0.95;;;;;;;-1.57;76.56;97303.67;1828084;78;21857;-67
2021/01/15 03:01:57;;;;;;;1.62;1.07;;;;;;;-1.57;76.56;97303.67;1827152;78;21813;-65
2021/01/15 03:04:56;;;;;;;0.90;0.90;;;;;;;-1.61;76.35;97303.47;1827361;78;21262;-65
2021/01/15 03:07:28;;;;;;;2.42;1.60;;;;;;;-1.65;76.39;97302.45;1827170;78;21143;-65
2021/01/15 03:10:00;;;;;;;3.02;1.37;;;;;;;-1.68;76.32;97311.08;1827054;78;21226;-65
2021/01/15 03:12:30;;;;;;;3.10;1.82;;;;;;;-1.67;76.51;97296.16;1797889;78;21151;-65
2021/01/15 03:15:00;;;;;;;4.00;2.05;;;;;;;-1.67;76.47;97297.42;1827090;78;21222;-65
2021/01/15 03:17:53;;;;;;;4.67;1.87;;;;;;;-1.68;76.43;97295.80;1827262;78;21699;-65
2021/01/15 03:20:24;;;;;;;2.12;1.98;;;;;;;-1.68;76.21;97305.16;1706989;84;21219;-65
2021/01/15 03:22:52;;;;;;;2.33;1.35;;;;;;;-1.72;76.42;97301.97;1706573;84;21612;-65
2021/01/15 03:25:20;;;;;;;4.50;1.87;;;;;;;-1.73;76.57;97301.59;1706674;84;21200;-65
2021/01/15 03:27:51;;;;;;;1.90;1.75;;;;;;;-1.72;76.64;97308.78;1706719;84;21164;-65
2021/01/15 03:30:24;;;;;;;1.20;1.05;;;;;;;-1.74;76.67;97310.57;1706582;84;21183;-63
2021/01/15 03:32:55;;;;;;;2.45;2.00;;;;;;;-1.76;76.80;97315.77;1706225;84;21405;-65
2021/01/15 03:35:25;;;;;;;1.82;1.37;;;;;;;-1.79;76.98;97318.92;1706339;84;21172;-66
2021/01/15 03:38:27;;;;;;;3.65;1.67;;;;;;;-1.84;77.42;97319.62;1706506;84;21581;-66
2021/01/15 03:40:56;;;;;;;0.98;0.93;;;;;;;-1.83;77.84;97322.54;1767718;81;21148;-65
2021/01/15 03:43:26;;;;;;;3.35;1.92;;;;;;;-1.85;77.68;97322.61;1767654;81;21156;-65
2021/01/15 03:45:56;;;;;;;2.00;1.45;;;;;;;-1.90;78.18;97329.66;1767618;81;21197;-65
2021/01/15 03:48:26;;;;;;;2.62;1.85;;;;;;;-1.89;77.76;97324.95;1767808;81;21163;-68
2021/01/15 03:50:54;;;;;;;1.95;1.47;;;;;;;-1.98;78.28;97326.70;1767987;81;21298;-65
2021/01/15 03:53:24;;;;;;;0.72;0.65;;;;;;;-2.00;78.21;97328.07;1767498;81;21124;-65
2021/01/15 03:55:54;;;;;;;2.17;1.67;;;;;;;-2.03;78.00;97334.60;1767951;81;21148;-65
2021/01/15 03:58:23;;;;;;;1.20;1.10;;;;;;;-2.09;78.39;97330.27;1767413;81;21164;-65
2021/01/15 04:00:51;;;;;;;2.10;1.17;;;;;;;-2.10;78.10;97333.26;1767149;81;21152;-65
2021/01/15 04:03:19;;;;;;;2.95;1.75;;;;;;;-2.11;78.30;97327.82;1767380;81;21133;-65
2021/01/15 04:05:48;;;;;;;3.33;1.85;;;;;;;-2.14;78.38;97339.88;1767349;81;21239;-65
2021/01/15 04:08:16;;;;;;;2.50;1.37;;;;;;;-2.24;78.70;97338.70;1767269;81;21700;-65
2021/01/15 04:10:44;;;;;;;1.85;1.40;;;;;;;-2.24;78.75;97333.61;1767252;81;21264;-64
2021/01/15 04:13:12;;;;;;;2.90;1.70;;;;;;;-2.25;78.55;97335.78;1767323;81;21219;-64
2021/01/15 04:15:40;;;;;;;1.62;1.52;;;;;;;-2.32;78.90;97342.09;1767328;81;21212;-65
2021/01/15 04:18:08;;;;;;;1.87;1.17;;;;;;;-2.36;79.06;97336.34;1767046;81;21188;-66
2021/01/15 04:20:37;;;;;;;1.25;0.70;;;;;;;-2.32;78.89;97343.36;1767319;81;21219;-66
2021/01/15 04:23:05;;;;;;;2.45;1.30;;;;;;;-2.34;79.10;97349.81;1767129;81;21658;-65
2021/01/15 04:25:33;;;;;;;1.95;1.32;;;;;;;-2.33;79.24;97340.47;1767124;81;21193;-65
2021/01/15 04:28:02;;;;;;;1.90;1.42;;;;;;;-2.29;79.33;97347.84;1767242;81;21625;-67
2021/01/15 04:30:31;;;;;;;2.52;1.52;;;;;;;-2.22;79.31;97347.09;1767479;81;21200;-68
2021/01/15 04:32:59;;;;;;;1.52;1.42;;;;;;;-2.20;79.48;97345.27;1767709;81;21204;-67
2021/01/15 04:35:28;;;;;;;1.60;1.47;;;;;;;-2.16;79.43;97343.77;1767267;81;21596;-68
2021/01/15 04:37:56;;;;;;;1.95;1.82;;;;;;;-2.14;79.56;97350.06;1767064;81;21133;-67
2021/01/15 04:40:24;;;;;;;2.62;1.10;;;;;;;-2.18;79.82;97346.03;1763408;81;21178;-67
2021/01/15 04:42:58;;;;;;;1.32;1.17;;;;;;;-2.12;79.63;97350.78;1762030;81;21316;-67
2021/01/15 04:45:27;;;;;;;1.95;1.47;;;;;;;-2.12;79.69;97346.97;1761919;81;21156;-67
2021/01/15 04:47:58;;;;;;;4.72;2.10;;;;;;;-2.10;79.94;97344.70;1761227;81;21321;-67
2021/01/15 04:50:28;;;;;;;2.27;1.67;;;;;;;-2.13;79.90;97354.22;1762055;81;21158;-68
2021/01/15 04:52:59;;;;;;;1.25;1.17;;;;;;;-2.13;79.49;97356.31;1762130;81;21190;-68
2021/01/15 04:55:28;;;;;;;2.65;2.15;;;;;;;-2.10;79.35;97348.52;1761824;81;21289;-67
2021/01/15 04:57:58;;;;;;;2.42;2.22;;;;;;;-2.11;79.36;97352.44;1762266;81;21297;-67
2021/01/15 05:00:27;;;;;;;1.32;1.22;;;;;;;-2.14;79.62;97349.58;1761952;81;21171;-67
2021/01/15 05:02:59;;;;;;;2.37;1.10;;;;;;;-2.15;79.75;97356.04;1762259;81;21124;-67
2021/01/15 05:05:28;;;;;;;1.27;1.12;;;;;;;-2.15;79.71;97357.31;1762327;81;21143;-65
2021/01/15 05:08:09;;;;;;;3.62;1.75;;;;;;;-2.16;79.89;97358.20;1762013;81;21529;-66
2021/01/15 05:10:44;;;;;;;4.05;2.45;;;;;;;-2.21;79.74;97358.88;1749956;81;21583;-65
2021/01/15 05:13:16;;;;;;;1.57;1.22;;;;;;;-2.13;79.72;97352.95;1762513;81;21151;-65
2021/01/15 05:15:47;;;;;;;3.20;1.72;;;;;;;-2.12;79.90;97354.59;1762093;81;21159;-65
2021/01/15 05:18:18;;;;;;;0.80;0.60;;;;;;;-2.09;80.02;97362.06;1762459;81;21674;-65
2021/01/15 05:20:49;;;;;;;0.47;0.47;;;;;;;-2.09;80.23;97362.89;1764477;81;21296;-65
2021/01/15 05:23:22;;;;;;;1.95;1.05;;;;;;;-2.07;80.20;97370.45;1764540;81;21978;-66
2021/01/15 05:25:52;;;;;;;1.20;0.85;;;;;;;-2.03;80.20;97367.67;1764090;81;21293;-66
2021/01/15 05:28:22;;;;;;;1.35;1.25;;;;;;;-2.06;80.50;97374.62;1762442;81;21158;-65
2021/01/15 05:31:18;;;;;;;0.75;0.75;;;;;;;-2.04;80.63;97379.19;1764653;80;21543;-64
2021/01/15 05:34:13;;;;;;;0.98;0.88;;;;;;;-2.04;80.96;97384.28;1742566;82;21644;-65
2021/01/15 05:36:42;;;;;;;1.92;1.32;;;;;;;-2.01;80.71;97387.48;1658060;85;21193;-64
2021/01/15 05:39:20;;;;;;;2.58;0.90;;;;;;;-2.10;81.76;97387.16;1697901;84;21178;-67
2021/01/15 05:41:58;;;;;;;1.45;0.93;;;;;;;-2.02;81.52;97387.55;1697894;84;21175;-67
2021/01/15 05:44:50;;;;;;;5.05;1.95;;;;;;;-2.01;82.13;97394.29;1697974;84;21166;-67
2021/01/15 05:47:19;;;;;;;5.78;1.80;;;;;;;-2.00;81.92;97397.22;1696364;84;21243;-67
2021/01/15 05:50:17;;;;;;;0.65;0.65;;;;;;;-2.06;81.80;97391.98;1631960;86;21171;-67
2021/01/15 05:56:10;;;;;;;2.15;1.35;;;;;;;-2.02;81.81;97390.09;1727286;82;21200;-68
2021/01/15 05:58:38;;;;;;;2.58;2.40;;;;;;;-2.06;82.60;97403.88;1733986;83;21612;-67
2021/01/15 06:01:06;;;;;;;1.45;1.12;;;;;;;-2.10;82.39;97408.30;1731495;82;21194;-68
2021/01/15 06:03:35;;;;;;;2.12;1.82;;;;;;;-2.11;82.35;97410.50;1715439;82;21162;-68
2021/01/15 06:06:27;;;;;;;1.20;0.88;;;;;;;-2.09;82.48;97410.40;1680657;84;21139;-68
2021/01/15 06:08:56;;;;;;;0.85;0.80;;;;;;;-2.11;82.52;97407.13;1743350;82;21147;-68
2021/01/15 06:11:25;;;;;;;1.67;1.12;;;;;;;-2.06;81.98;97413.61;1743939;81;21217;-67
2021/01/15 06:13:53;;;;;;;2.98;2.15;;;;;;;-2.04;82.00;97416.08;1741067;81;21173;-68
2021/01/15 06:16:22;;;;;;;2.08;1.50;;;;;;;-2.04;82.00;97416.08;1755269;81;22320;-68
2021/01/15 06:19:18;;;;;;;1.62;1.50;;;;;;;-2.00;81.54;97422.21;1758254;80;21222;-67
2021/01/15 06:21:53;;;;;;;2.87;1.95;;;;;;;-1.98;81.51;97427.20;1731458;83;21583;-67
2021/01/15 06:24:23;;;;;;;4.05;1.80;;;;;;;-1.93;81.30;97427.80;1731392;81;21663;-68
2021/01/15 06:27:06;;;;;;;13.85;4.33;;;;;;;-1.91;81.13;97428.08;1731479;81;21138;-68
2021/01/15 06:29:45;;;;;;;3.08;2.17;;;;;;;-1.87;80.79;97441.49;1731538;81;21138;-68
2021/01/15 06:35:31;;;;;;;14.03;9.10;;;;;;;-1.92;80.58;97436.64;1684142;84;21828;-68
2021/01/15 06:38:13;;;;;;;6.67;3.40;;;;;;;-1.90;80.68;97437.81;1684058;85;21308;-67
2021/01/15 06:41:04;;;;;;;5.97;3.10;;;;;;;-1.79;80.57;97439.83;1682027;84;21200;-65
2021/01/15 06:43:34;;;;;;;3.17;2.67;;;;;;;-1.77;80.45;97442.65;1634005;87;21185;-67
2021/01/15 06:46:05;;;;;;;6.58;3.70;;;;;;;-1.74;80.45;97441.21;1640387;86;21233;-67
2021/01/15 06:48:39;;;;;;;4.33;3.77;;;;;;;-1.71;80.33;97444.86;1640359;86;21206;-66
2021/01/15 06:51:09;;;;;;;4.20;2.72;;;;;;;-1.65;80.26;97443.28;1640172;87;21194;-67
2021/01/15 06:53:41;;;;;;;2.62;1.25;;;;;;;-1.65;79.99;97443.73;1640220;87;21158;-67
2021/01/15 06:59:21;;;;;;;2.12;1.87;;;;;;;-1.54;79.66;97454.17;1623438;85;21214;-65
2021/01/15 07:02:30;;;;;;;3.67;2.22;;;;;;;-1.49;79.33;97463.22;1642281;86;21208;-65
2021/01/15 07:07:44;;;;;;;5.20;3.00;;;;;;;-1.39;79.39;97474.17;1682401;84;21191;-65
2021/01/15 07:10:12;;;;;;;3.85;2.70;;;;;;;-1.38;78.98;97469.46;1659045;85;21610;-65
2021/01/15 07:12:42;;;;;;;2.45;1.98;;;;;;;-1.32;79.13;97473.77;1662373;85;21189;-64
2021/01/15 07:15:15;;;;;;;6.60;2.37;;;;;;;-1.32;79.13;97473.77;1619502;87;21230;-65
2021/01/15 07:17:47;;;;;;;3.37;1.90;;;;;;;-1.24;78.73;97478.00;1651449;86;21222;-65
2021/01/15 07:20:39;;;;;;;6.03;3.45;;;;;;;-1.11;78.41;97474.35;1652023;86;21193;-66
2021/01/15 07:23:40;;;;;;;2.17;1.95;;;;;;;-1.11;78.41;97474.35;1678985;85;21188;-65
2021/01/15 07:26:12;;;;;;;3.30;2.60;;;;;;;-1.03;78.12;97467.11;1659655;85;21213;-65
2021/01/15 07:28:42;;;;;;;5.72;3.08;;;;;;;-1.03;78.12;97467.11;1694885;84;21206;-64
2021/01/15 07:31:22;;;;;;;6.08;3.20;;;;;;;-0.97;77.82;97474.41;1667481;84;21239;-66
2021/01/15 07:33:43;;;;;;;5.47;2.80;;;;;;;-0.92;77.62;97474.99;1667270;85;21215;-66
2021/01/15 07:36:17;;;;;;;3.67;2.83;;;;;;;-0.89;77.33;97477.81;1660026;85;21680;-67
2021/01/15 07:41:54;;;;;;;4.72;2.83;;;;;;;-0.89;76.94;97483.73;1716115;83;21219;-65
2021/01/15 07:44:34;;;;;;;5.20;3.10;;;;;;;-0.82;77.03;97489.34;1738592;81;21203;-64
2021/01/15 07:47:03;;;;;;;4.72;2.92;;;;;;;-0.91;76.07;97487.28;1741758;81;21591;-65
2021/01/15 07:49:49;;;;;;;6.60;2.58;;;;;;;-0.82;76.53;97491.89;1744413;81;21153;-65
2021/01/15 07:52:17;;;;;;;5.77;3.07;;;;;;;-0.82;76.53;97491.89;1741528;81;21614;-65
2021/01/15 07:54:57;;;;;;;3.30;2.67;;;;;;;-0.83;76.88;97499.16;1741747;82;21182;-65
2021/01/15 07:57:22;;;;;;;2.55;1.95;;;;;;;-0.83;76.88;97499.16;1741458;82;21150;-65
2021/01/15 07:59:51;;;;;;;17.30;11.28;;;;;;;-0.83;76.94;97503.81;1741997;82;21312;-66
2021/01/15 08:02:22;;;;;;;22.90;9.10;;;;;;;-0.80;77.22;97504.09;1741753;82;21189;-65
2021/01/15 08:04:54;;;;;;;18.35;12.73;;;;;;;-0.80;77.22;97504.09;1742186;82;21308;-66
2021/01/15 08:07:42;;;;;;;10.25;5.70;;;;;;;-0.75;77.47;97511.04;1739505;82;21193;-66
2021/01/15 08:10:16;;;;;;;21.55;14.13;;;;;;;-0.78;76.98;97503.56;1653378;85;21174;-70
2021/01/15 08:12:44;;;;;;;6.65;3.02;;;;;;;-0.86;79.36;97509.53;1696228;84;21163;-64
2021/01/15 08:15:53;;;;;;;3.95;2.60;;;;;;;-0.86;79.36;97509.53;1652326;87;21658;-65
2021/01/15 08:18:24;;;;;;;4.12;1.77;;;;;;;-0.81;78.72;97517.28;1653412;87;21204;-65
2021/01/15 08:23:34;;;;;;;4.60;3.05;;;;;;;-0.66;80.07;97522.02;1711697;82;21144;-67
2021/01/15 08:26:26;;;;;;;2.22;1.92;;;;;;;-0.63;77.31;97529.04;1711689;83;21296;-67
2021/01/15 08:28:54;;;;;;;4.83;2.75;;;;;;;-0.51;77.85;97525.78;1715024;82;21353;-66
2021/01/15 08:31:22;;;;;;;4.12;2.65;;;;;;;-0.39;77.91;97525.59;1715465;83;21319;-66
2021/01/15 08:34:11;;;;;;;3.15;2.40;;;;;;;-0.35;76.73;97514.27;1709079;83;21594;-67
2021/01/15 08:36:47;;;;;;;6.62;2.52;;;;;;;-0.31;76.89;97516.22;1701982;84;21146;-67
2021/01/15 08:39:16;;;;;;;6.25;2.75;;;;;;;-0.22;76.54;97513.95;1722135;83;21130;-68
2021/01/15 08:41:56;;;;;;;23.15;4.33;;;;;;;-0.18;76.25;97515.42;1720989;83;21176;-69
2021/01/15 08:44:47;;;;;;;6.47;3.70;;;;;;;-0.18;75.71;97512.05;1718955;83;21147;-73
2021/01/15 08:47:20;;;;;;;15.85;8.78;;;;;;;-0.09;76.72;97514.08;1655160;86;21178;-73
2021/01/15 08:50:15;;;;;;;43.95;23.92;;;;;;;-0.02;76.51;97521.75;1655103;87;21239;-67
2021/01/15 08:52:44;;;;;;;18.37;3.40;;;;;;;0.14;76.54;97523.78;1680986;85;21186;-66
2021/01/15 08:55:15;;;;;;;5.30;3.52;;;;;;;0.11;74.99;97530.80;1680737;84;21209;-68
2021/01/15 08:57:43;;;;;;;5.85;3.47;;;;;;;0.09;74.70;97519.39;1681079;84;21642;-69
2021/01/15 09:00:14;;;;;;;3.77;2.50;;;;;;;0.14;75.14;97512.75;1687122;85;21565;-69
2021/01/15 09:02:43;;;;;;;7.83;3.85;;;;;;;0.23;75.15;97512.22;1685785;84;21155;-69
2021/01/15 09:05:18;;;;;;;3.75;2.62;;;;;;;0.27;74.90;97517.52;1662045;85;21212;-69
2021/01/15 09:07:51;;;;;;;5.28;2.27;;;;;;;0.30;74.91;97514.32;1686031;84;21135;-69
2021/01/15 09:10:20;;;;;;;4.00;3.05;;;;;;;0.32;74.08;97518.86;1686923;85;21223;-69
2021/01/15 09:12:49;;;;;;;5.17;2.52;;;;;;;0.32;74.04;97520.14;1686006;84;21195;-68
2021/01/15 09:15:43;;;;;;;4.05;2.70;;;;;;;0.35;74.04;97524.27;1687066;85;21349;-67
2021/01/15 09:18:11;;;;;;;5.05;3.08;;;;;;;0.43;74.01;97516.49;1656047;85;21279;-66
2021/01/15 09:20:39;;;;;;;1.90;1.65;;;;;;;0.50;73.98;97513.14;1674048;85;21272;-66
2021/01/15 09:23:08;;;;;;;8.13;3.02;;;;;;;0.56;73.49;97510.66;1662539;86;21177;-66
2021/01/15 09:25:37;;;;;;;5.30;3.17;;;;;;;0.63;73.97;97514.03;1655037;86;21173;-67
2021/01/15 09:28:05;;;;;;;3.25;2.47;;;;;;;0.67;73.71;97517.22;1668293;86;21180;-67
2021/01/15 09:30:33;;;;;;;4.65;3.75;;;;;;;0.69;73.07;97523.89;1674461;86;21180;-67
2021/01/15 09:33:04;;;;;;;3.42;2.52;;;;;;;0.63;73.50;97526.80;1651151;86;21157;-65
2021/01/15 09:35:32;;;;;;;4.87;2.50;;;;;;;0.60;73.47;97528.72;1674082;86;21188;-65
2021/01/15 09:38:00;;;;;;;5.92;3.40;;;;;;;0.60;72.96;97519.78;1673981;85;21314;-65
2021/01/15 09:40:29;;;;;;;5.90;3.58;;;;;;;0.61;73.02;97520.16;1674329;86;21205;-65
2021/01/15 09:42:57;;;;;;;3.58;3.08;;;;;;;0.35;73.02;97528.89;1674021;84;21209;-65
2021/01/15 09:45:25;;;;;;;4.42;2.33;;;;;;;0.47;73.17;97518.41;1674000;86;21220;-65
2021/01/15 09:47:55;;;;;;;2.17;1.82;;;;;;;0.55;72.74;97521.78;1674085;84;21195;-65
2021/01/15 09:50:24;;;;;;;1.50;1.40;;;;;;;0.59;72.82;97515.58;1660771;84;21157;-64
2021/01/15 09:52:52;;;;;;;3.30;2.35;;;;;;;0.63;73.19;97517.86;1673966;84;21172;-68
2021/01/15 09:55:22;;;;;;;3.20;2.05;;;;;;;0.68;73.22;97522.24;1673992;86;21625;-68
2021/01/15 09:57:50;;;;;;;5.10;1.90;;;;;;;0.74;73.60;97519.30;1674109;86;21196;-65
2021/01/15 10:00:40;;;;;;;3.83;2.40;;;;;;;0.82;73.53;97513.72;1673903;84;21731;-65
2021/01/15 10:03:08;;;;;;;2.75;2.30;;;;;;;0.86;73.47;97517.28;1715556;83;21177;-66
2021/01/15 10:05:36;;;;;;;3.27;2.50;;;;;;;0.89;71.96;97520.12;1715608;82;21201;-66
2021/01/15 10:08:09;;;;;;;2.40;2.20;;;;;;;0.93;72.51;97517.27;1689362;83;21183;-65
2021/01/15 10:10:38;;;;;;;2.70;1.98;;;;;;;0.97;72.72;97519.66;1716283;82;21202;-65
2021/01/15 10:13:07;;;;;;;2.50;1.87;;;;;;;0.91;70.93;97522.12;1732922;83;21209;-66
2021/01/15 10:15:36;;;;;;;2.42;1.37;;;;;;;0.88;71.70;97526.97;1732894;83;21744;-66
2021/01/15 10:18:04;;;;;;;3.42;1.85;;;;;;;0.85;70.75;97528.90;1733617;83;21184;-68
2021/01/15 10:20:32;;;;;;;5.05;3.12;;;;;;;0.85;71.25;97527.62;1733523;83;21137;-67
2021/01/15 10:23:00;;;;;;;3.02;1.60;;;;;;;0.85;71.41;97531.00;1733810;83;21212;-69
2021/01/15 10:25:29;;;;;;;2.27;2.05;;;;;;;0.83;70.15;97525.59;1733843;83;21744;-66
2021/01/15 10:27:57;;;;;;;2.22;1.70;;;;;;;0.80;70.98;97529.63;1733653;83;21200;-66
2021/01/15 10:30:25;;;;;;;1.47;1.32;;;;;;;0.76;70.92;97526.44;1715978;83;21570;-66
2021/01/15 10:32:54;;;;;;;1.95;1.77;;;;;;;0.71;70.82;97528.44;1713904;84;21579;-66
2021/01/15 10:35:22;;;;;;;3.00;2.22;;;;;;;0.61;69.53;97522.70;1713904;84;21166;-66
2021/01/15 10:37:52;;;;;;;3.72;2.72;;;;;;;0.31;68.29;97522.81;1714115;82;21169;-66
2021/01/15 10:40:20;;;;;;;2.85;2.10;;;;;;;0.43;71.05;97517.77;1714315;82;21237;-66
2021/01/15 10:42:48;;;;;;;2.25;1.50;;;;;;;0.46;70.80;97518.06;1714061;83;21618;-65
2021/01/15 10:45:17;;;;;;;3.65;1.95;;;;;;;0.42;69.21;97510.22;1714029;84;21194;-65
2021/01/15 10:47:46;;;;;;;2.45;1.72;;;;;;;0.47;71.29;97514.13;1714157;82;21169;-66
2021/01/15 10:50:17;;;;;;;4.40;3.25;;;;;;;0.50;71.50;97518.25;1714334;84;21182;-66
2021/01/15 10:52:53;;;;;;;3.42;1.92;;;;;;;0.47;71.38;97514.58;1714104;84;21173;-65
2021/01/15 10:55:23;;;;;;;2.55;1.80;;;;;;;0.41;71.08;97515.78;1714273;82;21594;-66
2021/01/15 10:57:51;;;;;;;1.50;1.40;;;;;;;0.36;70.80;97519.50;1714732;84;21217;-66
2021/01/15 11:00:21;;;;;;;2.30;1.60;;;;;;;0.31;69.40;97515.94;1714474;83;21205;-68
2021/01/15 11:02:52;;;;;;;2.17;1.65;;;;;;;0.33;70.84;97506.47;1714568;82;21575;-68
2021/01/15 11:05:43;;;;;;;2.37;1.40;;;;;;;0.35;70.14;97515.33;1714350;84;21210;-66
2021/01/15 11:08:11;;;;;;;1.47;0.75;;;;;;;0.27;68.99;97508.09;1777714;81;21191;-66
2021/01/15 11:10:39;;;;;;;1.70;1.55;;;;;;;0.25;70.13;97491.23;1755609;82;21160;-65
2021/01/15 11:13:07;;;;;;;1.87;1.45;;;;;;;0.36;69.01;97505.45;1774525;81;21646;-65
2021/01/15 11:15:36;;;;;;;2.35;1.37;;;;;;;0.35;68.90;97507.19;1774928;81;21582;-67
2021/01/15 11:18:04;;;;;;;0.93;0.57;;;;;;;0.38;68.96;97498.09;1775066;80;21120;-65
2021/01/15 11:20:32;;;;;;;0.40;0.40;;;;;;;0.40;68.54;97506.92;1774844;80;21174;-65
2021/01/15 11:23:00;;;;;;;0.72;0.50;;;;;;;0.36;69.27;97508.02;1774496;81;21554;-65
2021/01/15 11:25:29;;;;;;;0.57;0.50;;;;;;;0.25;66.94;97506.55;1774618;79;21170;-65
2021/01/15 11:27:59;;;;;;;2.20;1.05;;;;;;;0.18;68.01;97504.82;1774704;81;21167;-66
2021/01/15 11:30:29;;;;;;;2.15;1.17;;;;;;;0.13;68.33;97506.81;1775035;80;21575;-67
2021/01/15 11:32:58;;;;;;;0.70;0.65;;;;;;;0.16;69.60;97504.53;1774862;81;21583;-65
2021/01/15 11:35:26;;;;;;;0.85;0.85;;;;;;;0.16;66.67;97504.08;1774621;80;21552;-65
2021/01/15 11:37:58;;;;;;;0.98;0.90;;;;;;;0.14;66.99;97505.09;1774756;80;21171;-66
2021/01/15 11:40:26;;;;;;;0.80;0.57;;;;;;;0.15;67.55;97504.19;1774954;80;21604;-66
2021/01/15 11:42:57;;;;;;;1.42;0.90;;;;;;;0.14;67.28;97507.64;1774953;81;21612;-68
2021/01/15 11:45:27;;;;;;;13.35;7.90;;;;;;;0.14;68.31;97504.64;1774995;80;21158;-66
2021/01/15 11:47:57;;;;;;;12.40;8.23;;;;;;;0.13;67.39;97505.98;1775120;81;21273;-66
2021/01/15 11:50:27;;;;;;;21.60;11.78;;;;;;;0.15;68.22;97503.73;1774768;80;21124;-66
2021/01/15 11:52:57;;;;;;;31.02;18.12;;;;;;;0.13;66.80;97502.16;1774732;81;21205;-65
2021/01/15 11:55:26;;;;;;;12.40;6.17;;;;;;;0.16;67.92;97501.52;1774788;80;21139;-65
2021/01/15 11:57:54;;;;;;;2.08;1.35;;;;;;;0.15;67.52;97499.08;1775800;81;21583;-65
2021/01/15 12:00:23;;;;;;;1.87;0.90;;;;;;;0.13;67.41;97502.98;1775833;81;21119;-65
2021/01/15 12:02:51;;;;;;;2.80;1.77;;;;;;;0.05;66.80;97507.71;1775689;80;21229;-65
2021/01/15 12:05:20;;;;;;;3.20;1.52;;;;;;;-0.01;67.46;97499.15;1775035;80;22384;-65
2021/01/15 12:07:48;;;;;;;1.98;1.42;;;;;;;-0.05;66.50;97497.69;1785273;80;21596;-65
2021/01/15 12:10:17;;;;;;;2.42;1.15;;;;;;;-0.05;66.92;97495.13;1711082;83;21166;-63
2021/01/15 12:12:45;;;;;;;0.53;0.40;;;;;;;-0.07;66.77;97498.21;1708271;82;21145;-65
2021/01/15 12:15:15;;;;;;;1.82;1.00;;;;;;;-0.11;67.04;97497.57;1741382;81;21131;-65
2021/01/15 12:17:44;;;;;;;2.05;1.07;;;;;;;-0.16;66.38;97502.14;1742641;82;21670;-65
2021/01/15 12:20:37;;;;;;;2.47;1.40;;;;;;;-0.30;66.29;97503.36;1739974;82;21710;-65
2021/01/15 12:23:05;;;;;;;3.97;1.10;;;;;;;-0.39;67.89;97494.14;1745558;81;21607;-65